createdAt,value
2022-12-25T00:00:00.399Z,5.20
2022-12-25T00:02:29.947Z,5.20
2022-12-25T00:04:57.169Z,5.20
2022-12-25T00:07:24.614Z,5.20
2022-12-25T00:09:51.917Z,5.10
2022-12-25T00:12:21.062Z,5.20
2022-12-25T00:14:48.536Z,5.10
2022-12-25T00:17:15.680Z,5.10
2022-12-25T00:19:42.765Z,5.20
2022-12-25T00:22:09.969Z,5.20
2022-12-25T00:24:37.239Z,5.20
2022-12-25T00:27:04.473Z,5.20
2022-12-25T00:29:31.915Z,5.10
2022-12-25T00:31:59.069Z,5.20
2022-12-25T00:34:26.322Z,5.20
2022-12-25T00:36:53.728Z,5.20
2022-12-25T00:39:20.956Z,5.20
2022-12-25T00:42:23.399Z,5.20
2022-12-25T00:44:50.676Z,5.10
2022-12-25T00:47:18.445Z,5.00
2022-12-25T00:49:45.843Z,5.00
2022-12-25T00:52:12.982Z,5.10
2022-12-25T00:54:40.101Z,5.10
2022-12-25T00:57:07.259Z,5.10
2022-12-25T00:59:34.704Z,5.10
2022-12-25T01:02:22.119Z,5.10
2022-12-25T01:04:53.554Z,5.00
2022-12-25T01:07:20.920Z,5.00
2022-12-25T01:10:06.805Z,5.00
2022-12-25T01:12:38.309Z,5.00
2022-12-25T01:15:06.669Z,5.00
2022-12-25T01:17:33.833Z,5.00
2022-12-25T01:20:01.364Z,4.90
2022-12-25T01:22:28.639Z,4.90
2022-12-25T01:24:55.796Z,4.90
2022-12-25T01:27:23.031Z,5.00
2022-12-25T01:29:50.193Z,5.00
2022-12-25T01:32:17.286Z,5.00
2022-12-25T01:34:45.604Z,5.00
2022-12-25T01:37:15.253Z,5.00
2022-12-25T01:39:42.462Z,5.00
2022-12-25T01:42:19.522Z,5.00
2022-12-25T01:44:46.616Z,5.00
2022-12-25T01:47:13.746Z,5.00
2022-12-25T01:49:41.952Z,5.00
2022-12-25T01:52:20.234Z,4.90
2022-12-25T01:55:04.237Z,4.90
2022-12-25T01:57:33.498Z,4.80
2022-12-25T02:00:00.829Z,4.70
2022-12-25T02:02:28.893Z,4.80
2022-12-25T02:05:10.362Z,4.80
2022-12-25T02:07:38.415Z,4.80
2022-12-25T02:10:06.004Z,4.80
2022-12-25T02:12:34.330Z,4.80
2022-12-25T02:15:13.000Z,4.80
2022-12-25T02:17:45.416Z,4.70
2022-12-25T02:21:00.593Z,4.80
2022-12-25T02:23:38.547Z,4.80
2022-12-25T02:26:52.790Z,4.90
2022-12-25T02:29:25.323Z,4.90
2022-12-25T02:32:17.147Z,4.90
2022-12-25T02:34:48.198Z,4.90
2022-12-25T02:37:32.147Z,4.80
2022-12-25T02:40:17.411Z,4.80
2022-12-25T02:43:17.916Z,4.70
2022-12-25T02:46:15.836Z,4.80
2022-12-25T02:49:09.663Z,4.80
2022-12-25T02:51:58.415Z,4.80
2022-12-25T02:54:47.800Z,4.80
2022-12-25T02:57:34.603Z,4.80
2022-12-25T03:00:20.168Z,4.80
2022-12-25T03:03:05.911Z,4.80
2022-12-25T03:05:51.672Z,4.80
2022-12-25T03:08:20.687Z,4.80
2022-12-25T03:11:10.987Z,4.90
2022-12-25T03:13:38.559Z,4.90
2022-12-25T03:16:24.891Z,4.80
2022-12-25T03:18:53.098Z,4.80
2022-12-25T03:21:38.907Z,4.70
2022-12-25T03:24:24.749Z,4.70
2022-12-25T03:26:58.144Z,4.90
2022-12-25T03:29:45.287Z,4.80
2022-12-25T03:32:15.252Z,4.70
2022-12-25T03:35:22.449Z,4.70
2022-12-25T03:38:18.550Z,4.70
2022-12-25T03:41:31.804Z,4.70
2022-12-25T03:44:58.665Z,4.70
2022-12-25T03:47:52.159Z,4.70
2022-12-25T03:50:55.095Z,4.70
2022-12-25T03:53:48.881Z,4.70
2022-12-25T03:56:37.690Z,4.70
2022-12-25T03:59:24.223Z,4.70
2022-12-25T04:02:10.438Z,4.70
2022-12-25T04:04:56.323Z,4.80
2022-12-25T04:07:42.253Z,4.80
2022-12-25T04:10:28.352Z,4.70
2022-12-25T04:13:14.148Z,4.70
2022-12-25T04:15:59.951Z,4.80
2022-12-25T04:18:45.969Z,4.70
2022-12-25T04:21:31.874Z,4.70
2022-12-25T04:24:17.797Z,4.70
2022-12-25T04:27:03.408Z,4.60
2022-12-25T04:29:49.401Z,4.70
2022-12-25T04:32:35.083Z,4.50
2022-12-25T04:35:20.939Z,4.60
2022-12-25T04:37:48.065Z,4.60
2022-12-25T04:40:15.242Z,4.50
2022-12-25T04:42:42.431Z,4.50
2022-12-25T04:45:10.022Z,4.50
2022-12-25T04:47:37.193Z,4.50
2022-12-25T04:50:04.889Z,4.50
2022-12-25T04:52:36.870Z,4.50
2022-12-25T04:55:04.857Z,4.50
2022-12-25T04:57:32.687Z,4.50
2022-12-25T04:59:59.851Z,4.50
2022-12-25T05:02:27.290Z,4.40
2022-12-25T05:04:54.463Z,4.40
2022-12-25T05:07:21.599Z,4.30
2022-12-25T05:09:48.787Z,4.40
2022-12-25T05:12:15.881Z,4.40
2022-12-25T05:14:43.055Z,4.30
2022-12-25T05:17:10.183Z,4.30
2022-12-25T05:19:37.375Z,4.40
2022-12-25T05:22:04.469Z,4.40
2022-12-25T05:24:31.692Z,4.40
2022-12-25T05:26:58.805Z,4.30
2022-12-25T05:29:26.013Z,4.30
2022-12-25T05:31:53.053Z,4.30
2022-12-25T05:34:20.029Z,4.30
2022-12-25T05:36:47.315Z,4.30
2022-12-25T05:39:14.511Z,4.30
2022-12-25T05:41:41.792Z,4.40
2022-12-25T05:44:09.226Z,4.30
2022-12-25T05:46:36.543Z,4.30
2022-12-25T05:49:05.721Z,4.30
2022-12-25T05:51:33.084Z,4.20
2022-12-25T05:54:00.287Z,4.30
2022-12-25T05:56:27.395Z,4.30
2022-12-25T05:58:54.725Z,4.30
2022-12-25T06:01:23.509Z,4.20
2022-12-25T06:03:50.838Z,4.30
2022-12-25T06:06:17.929Z,4.20
2022-12-25T06:08:45.237Z,4.20
2022-12-25T06:11:13.699Z,4.20
2022-12-25T06:13:40.909Z,4.30
2022-12-25T06:16:09.182Z,4.30
2022-12-25T06:18:37.500Z,4.30
2022-12-25T06:21:08.857Z,4.30
2022-12-25T06:23:37.103Z,4.20
2022-12-25T06:26:08.327Z,4.20
2022-12-25T06:28:35.565Z,4.10
2022-12-25T06:31:13.629Z,4.00
2022-12-25T06:33:40.977Z,4.00
2022-12-25T06:36:08.411Z,3.90
2022-12-25T06:38:35.764Z,3.90
2022-12-25T06:41:10.721Z,3.90
2022-12-25T06:43:38.425Z,4.00
2022-12-25T06:46:06.454Z,4.10
2022-12-25T06:48:34.283Z,4.00
2022-12-25T06:51:02.020Z,4.00
2022-12-25T06:53:32.279Z,4.00
2022-12-25T06:56:06.484Z,4.10
2022-12-25T06:58:33.582Z,4.10
2022-12-25T07:01:00.721Z,4.10
2022-12-25T07:03:29.077Z,4.20
2022-12-25T07:05:56.470Z,4.10
2022-12-25T07:08:23.457Z,4.10
2022-12-25T07:10:50.644Z,4.20
2022-12-25T07:13:17.891Z,4.20
2022-12-25T07:15:45.111Z,4.20
2022-12-25T07:18:12.334Z,4.20
2022-12-25T07:20:39.509Z,4.20
2022-12-25T07:23:06.696Z,4.20
2022-12-25T07:25:37.217Z,4.30
2022-12-25T07:28:04.974Z,4.30
2022-12-25T07:30:32.188Z,4.30
2022-12-25T07:32:59.243Z,4.40
2022-12-25T07:35:26.443Z,4.30
2022-12-25T07:37:53.794Z,4.40
2022-12-25T07:40:21.174Z,4.40
2022-12-25T07:42:48.412Z,4.30
2022-12-25T07:45:15.527Z,4.40
2022-12-25T07:47:42.836Z,4.50
2022-12-25T07:50:10.285Z,4.50
2022-12-25T07:52:43.226Z,4.40
2022-12-25T07:55:10.927Z,4.40
2022-12-25T07:57:38.003Z,4.50
2022-12-25T08:00:05.985Z,4.50
2022-12-25T08:02:33.658Z,4.60
2022-12-25T08:05:01.115Z,4.60
2022-12-25T08:07:28.703Z,4.60
2022-12-25T08:09:55.893Z,4.60
2022-12-25T08:12:23.069Z,4.70
2022-12-25T08:14:50.190Z,4.80
2022-12-25T08:17:17.193Z,4.80
2022-12-25T08:19:44.327Z,4.90
2022-12-25T08:22:11.497Z,5.00
2022-12-25T08:24:38.477Z,5.00
2022-12-25T08:27:05.409Z,5.10
2022-12-25T08:29:33.723Z,5.20
2022-12-25T08:32:00.692Z,5.20
2022-12-25T08:34:27.911Z,5.30
2022-12-25T08:36:55.139Z,5.30
2022-12-25T08:39:22.221Z,5.40
2022-12-25T08:41:49.339Z,5.40
2022-12-25T08:44:16.359Z,5.40
2022-12-25T08:46:43.743Z,5.40
2022-12-25T08:49:11.071Z,5.50
2022-12-25T08:51:38.143Z,5.40
2022-12-25T08:54:05.650Z,5.50
2022-12-25T08:56:32.757Z,5.40
2022-12-25T08:58:59.728Z,5.40
2022-12-25T09:01:26.894Z,5.40
2022-12-25T09:03:54.341Z,5.40
2022-12-25T09:06:21.426Z,5.40
2022-12-25T09:08:49.958Z,5.30
2022-12-25T09:11:17.944Z,5.30
2022-12-25T09:13:45.182Z,5.30
2022-12-25T09:16:14.705Z,5.30
2022-12-25T09:18:41.901Z,5.30
2022-12-25T09:21:11.915Z,5.30
2022-12-25T09:23:39.020Z,5.30
2022-12-25T09:26:06.946Z,5.40
2022-12-25T09:28:34.551Z,5.40
2022-12-25T09:31:01.822Z,5.40
2022-12-25T09:33:29.034Z,5.40
2022-12-25T09:36:00.568Z,5.40
2022-12-25T09:38:28.493Z,5.50
2022-12-25T09:41:12.204Z,5.50
2022-12-25T09:43:46.567Z,5.50
2022-12-25T09:46:19.212Z,5.60
2022-12-25T09:49:12.160Z,5.50
2022-12-25T09:51:39.368Z,5.60
2022-12-25T09:54:32.264Z,5.60
2022-12-25T09:56:59.628Z,5.60
2022-12-25T09:59:27.401Z,5.60
2022-12-25T10:02:04.355Z,5.60
2022-12-25T10:04:51.775Z,5.70
2022-12-25T10:07:19.875Z,5.80
2022-12-25T10:10:24.494Z,5.90
2022-12-25T10:13:06.700Z,6.00
2022-12-25T10:15:39.285Z,6.10
2022-12-25T10:18:58.010Z,6.20
2022-12-25T10:21:24.986Z,6.30
2022-12-25T10:24:09.676Z,6.50
2022-12-25T10:26:37.081Z,6.60
2022-12-25T10:29:16.064Z,6.70
2022-12-25T10:31:48.896Z,6.80
2022-12-25T10:34:16.042Z,6.90
2022-12-25T10:36:44.849Z,6.90
2022-12-25T10:39:22.458Z,7.00
2022-12-25T10:42:36.807Z,7.10
2022-12-25T10:45:06.576Z,7.10
2022-12-25T10:47:38.055Z,7.30
2022-12-25T10:50:17.637Z,7.40
2022-12-25T10:53:13.484Z,7.50
2022-12-25T10:55:41.008Z,7.60
2022-12-25T10:58:07.976Z,7.70
2022-12-25T11:00:35.290Z,7.90
2022-12-25T11:03:02.718Z,8.00
2022-12-25T11:05:30.632Z,8.10
2022-12-25T11:07:59.689Z,8.20
2022-12-25T11:10:31.559Z,8.30
2022-12-25T11:12:59.717Z,8.40
2022-12-25T11:15:31.231Z,8.50
2022-12-25T11:17:58.275Z,8.60
2022-12-25T11:20:25.452Z,8.70
2022-12-25T11:22:52.812Z,8.90
2022-12-25T11:25:27.343Z,9.00
2022-12-25T11:28:02.168Z,9.10
2022-12-25T11:30:30.283Z,9.10
2022-12-25T11:33:02.798Z,9.10
2022-12-25T11:35:32.513Z,9.20
2022-12-25T11:37:59.777Z,9.40
2022-12-25T11:40:51.683Z,9.50
2022-12-25T11:43:42.077Z,9.50
2022-12-25T11:46:14.831Z,9.60
2022-12-25T11:48:47.259Z,9.60
2022-12-25T11:51:14.890Z,9.70
2022-12-25T11:53:47.113Z,9.80
2022-12-25T11:56:19.947Z,9.80
2022-12-25T11:59:16.363Z,9.90
2022-12-25T12:01:50.061Z,10.00
2022-12-25T12:04:33.769Z,10.00
2022-12-25T12:07:31.406Z,10.10
2022-12-25T12:10:01.897Z,10.20
2022-12-25T12:13:09.639Z,10.20
2022-12-25T12:15:42.288Z,10.20
2022-12-25T12:18:27.462Z,10.30
2022-12-25T12:21:17.741Z,10.30
2022-12-25T12:23:47.810Z,10.30
2022-12-25T12:26:25.500Z,10.40
2022-12-25T12:29:02.389Z,10.40
2022-12-25T12:31:43.149Z,10.50
2022-12-25T12:34:26.832Z,10.40
2022-12-25T12:37:05.329Z,10.40
2022-12-25T12:39:35.736Z,10.40
2022-12-25T12:42:03.018Z,10.40
2022-12-25T12:44:32.435Z,10.40
2022-12-25T12:46:59.655Z,10.40
2022-12-25T12:49:28.722Z,10.40
2022-12-25T12:52:23.731Z,10.50
2022-12-25T12:55:07.681Z,10.50
2022-12-25T12:57:41.780Z,10.40
2022-12-25T13:00:15.114Z,10.40
2022-12-25T13:02:51.419Z,10.40
2022-12-25T13:05:39.551Z,10.50
2022-12-25T13:08:21.619Z,10.50
2022-12-25T13:10:50.245Z,10.30
2022-12-25T13:13:23.032Z,10.30
2022-12-25T13:15:50.759Z,10.40
2022-12-25T13:18:20.253Z,10.50
2022-12-25T13:20:55.459Z,10.50
2022-12-25T13:23:28.143Z,10.40
2022-12-25T13:25:56.578Z,10.40
2022-12-25T13:28:34.553Z,10.50
2022-12-25T13:31:13.247Z,10.40
2022-12-25T13:33:40.883Z,10.40
2022-12-25T13:36:11.796Z,10.30
2022-12-25T13:38:42.942Z,10.30
2022-12-25T13:41:28.586Z,10.20
2022-12-25T13:43:58.033Z,10.10
2022-12-25T13:46:27.124Z,10.00
2022-12-25T13:49:01.103Z,9.90
2022-12-25T13:51:28.454Z,9.90
2022-12-25T13:54:06.157Z,9.80
2022-12-25T13:56:33.466Z,9.60
2022-12-25T13:59:00.719Z,9.60
2022-12-25T14:01:28.775Z,9.40
2022-12-25T14:03:56.171Z,9.20
2022-12-25T14:06:30.402Z,8.90
2022-12-25T14:08:58.469Z,8.80
2022-12-25T14:11:26.834Z,8.70
2022-12-25T14:14:04.471Z,8.60
2022-12-25T14:16:31.748Z,8.60
2022-12-25T14:19:02.496Z,8.60
2022-12-25T14:21:38.827Z,8.70
2022-12-25T14:24:15.138Z,8.70
2022-12-25T14:26:42.667Z,8.70
2022-12-25T14:29:17.844Z,8.60
2022-12-25T14:31:45.994Z,8.50
2022-12-25T14:34:23.093Z,8.40
2022-12-25T14:36:50.849Z,8.30
2022-12-25T14:39:33.533Z,8.20
2022-12-25T14:42:01.980Z,8.20
2022-12-25T14:44:33.792Z,8.10
2022-12-25T14:47:17.614Z,8.00
2022-12-25T14:49:44.899Z,8.00
2022-12-25T14:52:37.455Z,7.90
2022-12-25T14:55:06.602Z,7.80
2022-12-25T14:57:37.453Z,7.80
2022-12-25T15:00:08.188Z,7.60
2022-12-25T15:02:40.829Z,7.50
2022-12-25T15:05:26.899Z,7.40
2022-12-25T15:08:10.397Z,7.30
2022-12-25T15:13:25.738Z,7.10
2022-12-25T15:16:06.898Z,7.10
2022-12-25T15:18:38.682Z,7.00
2022-12-25T15:21:06.011Z,6.70
2022-12-25T15:23:33.212Z,6.70
2022-12-25T15:26:00.395Z,6.60
2022-12-25T15:28:27.805Z,6.50
2022-12-25T15:30:55.137Z,6.30
2022-12-25T15:33:22.512Z,6.40
2022-12-25T15:35:49.750Z,6.40
2022-12-25T15:38:16.919Z,6.20
2022-12-25T15:40:44.137Z,6.20
2022-12-25T15:43:39.479Z,6.00
2022-12-25T15:46:01.525Z,5.90
2022-12-25T15:48:28.776Z,5.90
2022-12-25T15:50:56.140Z,5.90
2022-12-25T15:53:23.392Z,5.70
2022-12-25T15:55:50.553Z,5.50
2022-12-25T15:58:17.628Z,5.40
2022-12-25T16:00:45.002Z,5.50
2022-12-25T16:03:12.484Z,5.50
2022-12-25T16:05:39.897Z,5.50
2022-12-25T16:08:07.092Z,5.40
2022-12-25T16:10:38.718Z,5.40
2022-12-25T16:13:06.402Z,5.30
2022-12-25T16:15:33.665Z,5.30
2022-12-25T16:18:00.887Z,5.20
2022-12-25T16:20:28.139Z,5.10
2022-12-25T16:22:55.411Z,5.00
2022-12-25T16:25:22.632Z,4.90
2022-12-25T16:27:49.825Z,4.90
2022-12-25T16:30:17.848Z,4.90
2022-12-25T16:32:45.504Z,4.80
2022-12-25T16:35:12.920Z,4.80
2022-12-25T16:37:40.259Z,4.60
2022-12-25T16:40:09.832Z,4.50
2022-12-25T16:42:37.694Z,4.60
2022-12-25T16:45:05.444Z,4.50
2022-12-25T16:47:32.680Z,4.40
2022-12-25T16:49:59.921Z,4.40
2022-12-25T16:52:27.187Z,4.40
2022-12-25T16:54:54.317Z,4.40
2022-12-25T16:57:21.533Z,4.40
2022-12-25T16:59:48.750Z,4.40
2022-12-25T17:02:20.468Z,4.40
2022-12-25T17:04:48.250Z,4.40
2022-12-25T17:07:15.931Z,4.30
2022-12-25T17:09:44.571Z,4.30
2022-12-25T17:12:11.943Z,4.30
2022-12-25T17:14:39.155Z,4.10
2022-12-25T17:17:06.299Z,4.00
2022-12-25T17:19:33.450Z,4.00
2022-12-25T17:22:00.901Z,4.00
2022-12-25T17:24:28.949Z,4.00
2022-12-25T17:26:56.251Z,4.10
2022-12-25T17:29:25.289Z,4.00
2022-12-25T17:31:52.831Z,4.00
2022-12-25T17:34:20.229Z,4.00
2022-12-25T17:36:47.837Z,4.00
2022-12-25T17:39:15.276Z,3.90
2022-12-25T17:41:42.482Z,3.80
2022-12-25T17:44:09.990Z,3.90
2022-12-25T17:46:37.796Z,3.80
2022-12-25T17:49:05.164Z,3.70
2022-12-25T17:51:32.594Z,3.70
2022-12-25T17:54:03.224Z,3.60
2022-12-25T17:56:30.686Z,3.60
2022-12-25T17:58:59.247Z,3.50
2022-12-25T18:01:27.290Z,3.60
2022-12-25T18:03:54.952Z,3.60
2022-12-25T18:06:23.872Z,3.60
2022-12-25T18:08:50.944Z,3.60
2022-12-25T18:11:23.279Z,3.70
2022-12-25T18:13:52.301Z,3.60
2022-12-25T18:16:23.354Z,3.70
2022-12-25T18:18:52.503Z,3.60
2022-12-25T18:21:20.864Z,3.60
2022-12-25T18:23:48.085Z,3.50
2022-12-25T18:26:15.395Z,3.50
2022-12-25T18:28:44.068Z,3.40
2022-12-25T18:31:15.744Z,3.30
2022-12-25T18:33:43.632Z,3.30
2022-12-25T18:36:14.699Z,3.20
2022-12-25T18:38:41.975Z,3.20
2022-12-25T18:41:09.854Z,3.30
2022-12-25T18:43:53.185Z,3.30
2022-12-25T18:46:24.474Z,3.30
2022-12-25T18:48:52.264Z,3.50
2022-12-25T18:51:19.464Z,3.50
2022-12-25T18:53:46.699Z,3.40
2022-12-25T18:56:15.744Z,3.30
2022-12-25T18:58:43.233Z,3.40
2022-12-25T19:01:21.916Z,3.50
2022-12-25T19:03:49.579Z,3.30
2022-12-25T19:06:21.015Z,3.30
2022-12-25T19:08:48.362Z,3.20
2022-12-25T19:11:15.794Z,3.20
2022-12-25T19:13:43.373Z,3.10
2022-12-25T19:16:10.947Z,2.90
2022-12-25T19:18:38.837Z,3.00
2022-12-25T19:21:06.857Z,2.80
2022-12-25T19:23:34.133Z,2.80
2022-12-25T19:26:01.227Z,2.80
2022-12-25T19:28:28.585Z,2.80
2022-12-25T19:30:55.796Z,2.80
2022-12-25T19:33:23.113Z,2.90
2022-12-25T19:35:50.327Z,2.90
2022-12-25T19:38:17.607Z,2.70
2022-12-25T19:41:01.027Z,2.70
2022-12-25T19:43:36.687Z,2.70
2022-12-25T19:46:04.180Z,2.60
2022-12-25T19:48:31.778Z,2.60
2022-12-25T19:50:59.364Z,2.50
2022-12-25T19:53:26.768Z,2.50
2022-12-25T19:55:54.253Z,2.50
2022-12-25T19:58:21.919Z,2.70
2022-12-25T20:01:02.917Z,2.80
2022-12-25T20:03:30.388Z,2.70
2022-12-25T20:05:57.656Z,2.60
2022-12-25T20:08:25.189Z,2.50
2022-12-25T20:10:52.375Z,2.30
2022-12-25T20:13:19.664Z,2.40
2022-12-25T20:15:47.039Z,2.30
2022-12-25T20:18:14.462Z,2.40
2022-12-25T20:20:41.605Z,2.20
2022-12-25T20:23:09.001Z,2.10
2022-12-25T20:25:40.396Z,2.20
2022-12-25T20:28:07.749Z,2.30
2022-12-25T20:30:37.821Z,2.20
2022-12-25T20:33:04.922Z,2.10
2022-12-25T20:35:32.115Z,2.30
2022-12-25T20:38:02.704Z,2.40
2022-12-25T20:40:29.912Z,2.50
2022-12-25T20:42:57.147Z,2.50
2022-12-25T20:45:24.499Z,2.50
2022-12-25T20:47:51.544Z,2.40
2022-12-25T20:50:18.788Z,2.30
2022-12-25T20:52:46.118Z,2.30
2022-12-25T20:55:14.439Z,2.30
2022-12-25T20:57:41.651Z,2.20
2022-12-25T21:00:09.369Z,2.30
2022-12-25T21:02:38.034Z,2.30
2022-12-25T21:05:07.103Z,2.40
2022-12-25T21:07:34.458Z,2.40
2022-12-25T21:10:01.786Z,2.40
2022-12-25T21:12:29.001Z,2.40
2022-12-25T21:14:56.257Z,2.30
2022-12-25T21:17:23.872Z,2.20
2022-12-25T21:19:51.100Z,2.10
2022-12-25T21:22:18.398Z,2.10
2022-12-25T21:24:45.829Z,2.10
2022-12-25T21:27:13.299Z,2.10
2022-12-25T21:29:40.562Z,2.10
2022-12-25T21:32:26.274Z,2.10
2022-12-25T21:34:53.448Z,2.00
2022-12-25T21:37:20.641Z,2.00
2022-12-25T21:39:50.549Z,2.00
2022-12-25T21:42:17.881Z,1.90
2022-12-25T21:44:45.156Z,1.90
2022-12-25T21:47:12.271Z,1.80
2022-12-25T21:49:57.891Z,2.00
2022-12-25T21:52:25.005Z,2.00
2022-12-25T21:54:53.214Z,2.00
2022-12-25T21:57:20.557Z,1.90
2022-12-25T21:59:48.703Z,2.00
2022-12-25T22:02:16.102Z,2.00
2022-12-25T22:04:43.563Z,2.00
2022-12-25T22:07:19.404Z,2.00
2022-12-25T22:09:50.784Z,1.80
2022-12-25T22:12:38.480Z,1.90
2022-12-25T22:15:07.430Z,1.80
2022-12-25T22:17:55.298Z,1.80
2022-12-25T22:20:28.252Z,1.90
2022-12-25T22:22:55.525Z,1.80
2022-12-25T22:25:22.846Z,1.70
2022-12-25T22:27:50.681Z,1.60
2022-12-25T22:30:22.714Z,1.60
2022-12-25T22:32:50.622Z,1.80
2022-12-25T22:35:18.686Z,1.90
2022-12-25T22:37:47.280Z,1.80
2022-12-25T22:40:15.791Z,1.80
2022-12-25T22:42:43.027Z,1.80
2022-12-25T22:45:11.061Z,1.90
2022-12-25T22:47:38.341Z,2.00
2022-12-25T22:50:05.822Z,1.90
2022-12-25T22:52:33.092Z,1.70
2022-12-25T22:55:00.311Z,1.90
2022-12-25T22:57:27.489Z,1.90
2022-12-25T22:59:54.700Z,1.90
2022-12-25T23:02:22.241Z,2.00
2022-12-25T23:04:49.548Z,2.00
2022-12-25T23:07:16.883Z,1.80
2022-12-25T23:09:44.308Z,1.80
2022-12-25T23:12:31.746Z,1.80
2022-12-25T23:14:59.157Z,1.80
2022-12-25T23:17:45.081Z,1.70
2022-12-25T23:20:32.246Z,1.80
2022-12-25T23:23:18.008Z,1.70
2022-12-25T23:26:03.979Z,1.70
2022-12-25T23:28:50.030Z,1.70
2022-12-25T23:31:17.605Z,1.60
2022-12-25T23:33:44.714Z,1.60
2022-12-25T23:36:12.009Z,1.70
2022-12-25T23:38:39.114Z,1.60
2022-12-25T23:41:06.268Z,1.50
2022-12-25T23:43:33.387Z,1.50
2022-12-25T23:46:00.475Z,1.60
2022-12-25T23:48:27.829Z,1.60
2022-12-25T23:50:54.960Z,1.60
2022-12-25T23:53:22.004Z,1.70
2022-12-25T23:55:55.403Z,1.50
2022-12-25T23:58:23.725Z,1.60
